sensor_id;sensor_type;location;lat;lon;timestamp;temperature;humidity
19168;DHT22;9716;53.114;18.040;2023-05-29T00:02:03;12.90;87.90
19168;DHT22;9716;53.114;18.040;2023-05-29T00:04:32;12.80;88.10
19168;DHT22;9716;53.114;18.040;2023-05-29T00:07:01;12.70;88.20
19168;DHT22;9716;53.114;18.040;2023-05-29T00:09:31;12.70;88.50
19168;DHT22;9716;53.114;18.040;2023-05-29T00:12:01;12.60;88.70
19168;DHT22;9716;53.114;18.040;2023-05-29T00:14:30;12.60;88.90
19168;DHT22;9716;53.114;18.040;2023-05-29T00:16:58;12.50;89.10
19168;DHT22;9716;53.114;18.040;2023-05-29T00:19:27;12.60;89.50
19168;DHT22;9716;53.114;18.040;2023-05-29T00:21:55;12.50;89.60
19168;DHT22;9716;53.114;18.040;2023-05-29T00:24:24;12.50;89.80
19168;DHT22;9716;53.114;18.040;2023-05-29T00:26:53;12.40;89.90
19168;DHT22;9716;53.114;18.040;2023-05-29T00:29:23;12.50;90.10
19168;DHT22;9716;53.114;18.040;2023-05-29T00:31:52;12.40;90.10
19168;DHT22;9716;53.114;18.040;2023-05-29T00:34:22;12.40;90.20
19168;DHT22;9716;53.114;18.040;2023-05-29T00:36:51;12.40;90.20
19168;DHT22;9716;53.114;18.040;2023-05-29T00:39:20;12.30;90.30
19168;DHT22;9716;53.114;18.040;2023-05-29T00:41:48;12.30;90.40
19168;DHT22;9716;53.114;18.040;2023-05-29T00:44:18;12.30;90.50
19168;DHT22;9716;53.114;18.040;2023-05-29T00:46:49;12.20;90.50
19168;DHT22;9716;53.114;18.040;2023-05-29T00:49:21;12.20;90.60
19168;DHT22;9716;53.114;18.040;2023-05-29T00:51:51;12.20;90.70
19168;DHT22;9716;53.114;18.040;2023-05-29T00:54:22;12.20;90.80
19168;DHT22;9716;53.114;18.040;2023-05-29T00:56:51;12.10;90.80
19168;DHT22;9716;53.114;18.040;2023-05-29T00:59:21;12.10;90.90
19168;DHT22;9716;53.114;18.040;2023-05-29T01:01:51;12.00;91.00
19168;DHT22;9716;53.114;18.040;2023-05-29T01:04:22;12.00;91.10
19168;DHT22;9716;53.114;18.040;2023-05-29T01:06:51;12.00;91.20
19168;DHT22;9716;53.114;18.040;2023-05-29T01:09:20;12.00;91.40
19168;DHT22;9716;53.114;18.040;2023-05-29T01:11:55;12.00;91.50
19168;DHT22;9716;53.114;18.040;2023-05-29T01:14:36;11.90;91.60
19168;DHT22;9716;53.114;18.040;2023-05-29T01:17:15;11.90;91.70
19168;DHT22;9716;53.114;18.040;2023-05-29T01:20:02;11.90;91.70
19168;DHT22;9716;53.114;18.040;2023-05-29T01:22:40;11.80;91.80
19168;DHT22;9716;53.114;18.040;2023-05-29T01:25:19;11.80;91.90
19168;DHT22;9716;53.114;18.040;2023-05-29T01:27:52;11.80;92.10
19168;DHT22;9716;53.114;18.040;2023-05-29T01:30:22;11.80;92.10
19168;DHT22;9716;53.114;18.040;2023-05-29T01:32:52;11.80;92.20
19168;DHT22;9716;53.114;18.040;2023-05-29T01:35:21;11.70;92.30
19168;DHT22;9716;53.114;18.040;2023-05-29T01:37:49;11.70;92.40
19168;DHT22;9716;53.114;18.040;2023-05-29T01:40:17;11.70;92.60
19168;DHT22;9716;53.114;18.040;2023-05-29T01:42:46;11.70;92.70
19168;DHT22;9716;53.114;18.040;2023-05-29T01:45:16;11.60;92.70
19168;DHT22;9716;53.114;18.040;2023-05-29T01:47:45;11.60;92.90
19168;DHT22;9716;53.114;18.040;2023-05-29T01:50:17;11.60;93.00
19168;DHT22;9716;53.114;18.040;2023-05-29T01:52:46;11.50;93.10
19168;DHT22;9716;53.114;18.040;2023-05-29T01:55:15;11.50;93.30
19168;DHT22;9716;53.114;18.040;2023-05-29T01:57:43;11.50;93.60
19168;DHT22;9716;53.114;18.040;2023-05-29T02:00:14;11.50;93.80
19168;DHT22;9716;53.114;18.040;2023-05-29T02:02:45;11.40;93.90
19168;DHT22;9716;53.114;18.040;2023-05-29T02:05:14;11.40;94.00
19168;DHT22;9716;53.114;18.040;2023-05-29T02:07:44;11.40;94.20
19168;DHT22;9716;53.114;18.040;2023-05-29T02:10:13;11.40;94.40
19168;DHT22;9716;53.114;18.040;2023-05-29T02:12:42;11.30;94.60
19168;DHT22;9716;53.114;18.040;2023-05-29T02:15:11;11.30;94.80
19168;DHT22;9716;53.114;18.040;2023-05-29T02:17:39;11.30;95.00
19168;DHT22;9716;53.114;18.040;2023-05-29T02:20:10;11.30;95.10
19168;DHT22;9716;53.114;18.040;2023-05-29T02:22:39;11.30;95.30
19168;DHT22;9716;53.114;18.040;2023-05-29T02:25:08;11.30;95.40
19168;DHT22;9716;53.114;18.040;2023-05-29T02:27:36;11.30;95.50
19168;DHT22;9716;53.114;18.040;2023-05-29T02:30:06;11.30;95.60
19168;DHT22;9716;53.114;18.040;2023-05-29T02:32:35;11.30;95.80
19168;DHT22;9716;53.114;18.040;2023-05-29T02:35:04;11.30;95.90
19168;DHT22;9716;53.114;18.040;2023-05-29T02:37:34;11.20;96.00
19168;DHT22;9716;53.114;18.040;2023-05-29T02:40:03;11.20;96.20
19168;DHT22;9716;53.114;18.040;2023-05-29T02:42:33;11.20;96.30
19168;DHT22;9716;53.114;18.040;2023-05-29T02:45:02;11.20;96.50
19168;DHT22;9716;53.114;18.040;2023-05-29T02:47:30;11.20;96.60
19168;DHT22;9716;53.114;18.040;2023-05-29T02:49:59;11.20;96.70
19168;DHT22;9716;53.114;18.040;2023-05-29T02:52:28;11.30;96.90
19168;DHT22;9716;53.114;18.040;2023-05-29T02:54:59;11.30;97.00
19168;DHT22;9716;53.114;18.040;2023-05-29T02:57:27;11.30;97.10
19168;DHT22;9716;53.114;18.040;2023-05-29T02:59:56;11.30;97.10
19168;DHT22;9716;53.114;18.040;2023-05-29T03:02:24;11.40;97.20
19168;DHT22;9716;53.114;18.040;2023-05-29T03:04:53;11.40;97.20
19168;DHT22;9716;53.114;18.040;2023-05-29T03:07:22;11.40;97.20
19168;DHT22;9716;53.114;18.040;2023-05-29T03:09:51;11.50;97.30
19168;DHT22;9716;53.114;18.040;2023-05-29T03:12:20;11.60;97.30
19168;DHT22;9716;53.114;18.040;2023-05-29T03:14:49;11.70;97.30
19168;DHT22;9716;53.114;18.040;2023-05-29T03:17:18;11.70;97.20
19168;DHT22;9716;53.114;18.040;2023-05-29T03:19:48;11.80;97.10
19168;DHT22;9716;53.114;18.040;2023-05-29T03:22:17;11.90;97.10
19168;DHT22;9716;53.114;18.040;2023-05-29T03:24:46;12.00;97.00
19168;DHT22;9716;53.114;18.040;2023-05-29T03:27:15;12.10;96.90
19168;DHT22;9716;53.114;18.040;2023-05-29T03:29:45;12.20;96.70
19168;DHT22;9716;53.114;18.040;2023-05-29T03:32:14;12.30;96.50
19168;DHT22;9716;53.114;18.040;2023-05-29T03:34:42;12.50;96.30
19168;DHT22;9716;53.114;18.040;2023-05-29T03:37:11;12.70;96.00
19168;DHT22;9716;53.114;18.040;2023-05-29T03:39:39;12.90;95.80
19168;DHT22;9716;53.114;18.040;2023-05-29T03:42:08;13.10;95.50
19168;DHT22;9716;53.114;18.040;2023-05-29T03:44:36;13.30;95.30
19168;DHT22;9716;53.114;18.040;2023-05-29T03:47:06;13.50;94.90
19168;DHT22;9716;53.114;18.040;2023-05-29T03:49:36;13.80;94.60
19168;DHT22;9716;53.114;18.040;2023-05-29T03:52:05;14.00;94.30
19168;DHT22;9716;53.114;18.040;2023-05-29T03:54:34;14.30;93.80
19168;DHT22;9716;53.114;18.040;2023-05-29T03:57:02;14.60;93.40
19168;DHT22;9716;53.114;18.040;2023-05-29T03:59:31;14.80;92.80
19168;DHT22;9716;53.114;18.040;2023-05-29T04:01:59;15.10;92.30
19168;DHT22;9716;53.114;18.040;2023-05-29T04:04:29;15.40;91.80
19168;DHT22;9716;53.114;18.040;2023-05-29T04:06:58;15.70;91.30
19168;DHT22;9716;53.114;18.040;2023-05-29T04:09:27;16.00;90.90
19168;DHT22;9716;53.114;18.040;2023-05-29T04:11:55;16.20;90.40
19168;DHT22;9716;53.114;18.040;2023-05-29T04:14:24;16.40;90.00
19168;DHT22;9716;53.114;18.040;2023-05-29T04:16:52;16.70;89.40
19168;DHT22;9716;53.114;18.040;2023-05-29T04:19:23;16.90;88.40
19168;DHT22;9716;53.114;18.040;2023-05-29T04:21:53;17.20;87.60
19168;DHT22;9716;53.114;18.040;2023-05-29T04:24:22;17.50;86.80
19168;DHT22;9716;53.114;18.040;2023-05-29T04:26:51;17.60;86.00
19168;DHT22;9716;53.114;18.040;2023-05-29T04:29:20;17.80;85.30
19168;DHT22;9716;53.114;18.040;2023-05-29T04:31:48;18.00;85.10
19168;DHT22;9716;53.114;18.040;2023-05-29T04:34:18;18.10;84.90
19168;DHT22;9716;53.114;18.040;2023-05-29T04:36:47;18.30;84.60
19168;DHT22;9716;53.114;18.040;2023-05-29T04:39:17;18.50;84.10
19168;DHT22;9716;53.114;18.040;2023-05-29T04:41:51;18.70;83.40
19168;DHT22;9716;53.114;18.040;2023-05-29T04:44:20;18.90;82.70
19168;DHT22;9716;53.114;18.040;2023-05-29T04:46:50;19.10;81.90
19168;DHT22;9716;53.114;18.040;2023-05-29T04:49:19;19.50;81.10
19168;DHT22;9716;53.114;18.040;2023-05-29T04:51:50;19.80;80.20
19168;DHT22;9716;53.114;18.040;2023-05-29T04:54:22;20.00;79.40
19168;DHT22;9716;53.114;18.040;2023-05-29T04:56:51;20.20;78.70
19168;DHT22;9716;53.114;18.040;2023-05-29T04:59:19;20.40;78.20
19168;DHT22;9716;53.114;18.040;2023-05-29T05:01:48;20.50;77.60
19168;DHT22;9716;53.114;18.040;2023-05-29T05:04:17;20.70;77.20
19168;DHT22;9716;53.114;18.040;2023-05-29T05:06:46;20.80;76.60
19168;DHT22;9716;53.114;18.040;2023-05-29T05:09:15;21.00;76.30
19168;DHT22;9716;53.114;18.040;2023-05-29T05:11:45;21.20;75.80
19168;DHT22;9716;53.114;18.040;2023-05-29T05:14:14;21.40;75.20
19168;DHT22;9716;53.114;18.040;2023-05-29T05:16:42;21.60;74.60
19168;DHT22;9716;53.114;18.040;2023-05-29T05:19:11;22.00;74.20
19168;DHT22;9716;53.114;18.040;2023-05-29T05:21:39;22.20;73.50
19168;DHT22;9716;53.114;18.040;2023-05-29T05:24:08;22.50;72.90
19168;DHT22;9716;53.114;18.040;2023-05-29T05:26:36;22.60;72.20
19168;DHT22;9716;53.114;18.040;2023-05-29T05:29:06;22.70;71.80
19168;DHT22;9716;53.114;18.040;2023-05-29T05:31:35;22.80;71.70
19168;DHT22;9716;53.114;18.040;2023-05-29T05:34:04;22.80;71.50
19168;DHT22;9716;53.114;18.040;2023-05-29T05:36:32;22.90;71.30
19168;DHT22;9716;53.114;18.040;2023-05-29T05:39:01;23.00;70.90
19168;DHT22;9716;53.114;18.040;2023-05-29T05:41:30;23.20;70.50
19168;DHT22;9716;53.114;18.040;2023-05-29T05:43:59;23.30;70.00
19168;DHT22;9716;53.114;18.040;2023-05-29T05:46:30;23.50;69.70
19168;DHT22;9716;53.114;18.040;2023-05-29T05:48:59;23.50;69.30
19168;DHT22;9716;53.114;18.040;2023-05-29T05:51:28;23.60;68.90
19168;DHT22;9716;53.114;18.040;2023-05-29T05:53:56;23.70;68.60
19168;DHT22;9716;53.114;18.040;2023-05-29T05:56:25;23.70;68.10
19168;DHT22;9716;53.114;18.040;2023-05-29T05:58:53;23.70;67.40
19168;DHT22;9716;53.114;18.040;2023-05-29T06:01:22;23.70;66.00
19168;DHT22;9716;53.114;18.040;2023-05-29T06:03:53;23.80;65.80
19168;DHT22;9716;53.114;18.040;2023-05-29T06:06:21;23.80;65.60
19168;DHT22;9716;53.114;18.040;2023-05-29T06:08:50;23.90;65.10
19168;DHT22;9716;53.114;18.040;2023-05-29T06:11:19;24.10;64.80
19168;DHT22;9716;53.114;18.040;2023-05-29T06:13:47;24.10;64.10
19168;DHT22;9716;53.114;18.040;2023-05-29T06:16:16;24.10;64.00
19168;DHT22;9716;53.114;18.040;2023-05-29T06:18:45;24.20;64.10
19168;DHT22;9716;53.114;18.040;2023-05-29T06:21:15;24.40;63.70
19168;DHT22;9716;53.114;18.040;2023-05-29T06:23:43;24.70;62.90
19168;DHT22;9716;53.114;18.040;2023-05-29T06:26:12;24.80;62.60
19168;DHT22;9716;53.114;18.040;2023-05-29T06:28:41;24.80;62.30
19168;DHT22;9716;53.114;18.040;2023-05-29T06:31:09;24.70;62.30
19168;DHT22;9716;53.114;18.040;2023-05-29T06:33:38;24.80;62.30
19168;DHT22;9716;53.114;18.040;2023-05-29T06:36:07;24.90;62.20
19168;DHT22;9716;53.114;18.040;2023-05-29T06:38:37;25.10;62.00
19168;DHT22;9716;53.114;18.040;2023-05-29T06:41:05;25.10;61.60
19168;DHT22;9716;53.114;18.040;2023-05-29T06:43:34;25.30;61.70
19168;DHT22;9716;53.114;18.040;2023-05-29T06:46:03;25.50;60.70
19168;DHT22;9716;53.114;18.040;2023-05-29T06:48:32;25.60;60.10
19168;DHT22;9716;53.114;18.040;2023-05-29T06:51:02;25.70;60.00
19168;DHT22;9716;53.114;18.040;2023-05-29T06:53:37;25.50;60.10
19168;DHT22;9716;53.114;18.040;2023-05-29T06:56:05;25.60;60.30
19168;DHT22;9716;53.114;18.040;2023-05-29T06:58:34;25.80;60.60
19168;DHT22;9716;53.114;18.040;2023-05-29T07:01:03;25.90;59.90
19168;DHT22;9716;53.114;18.040;2023-05-29T07:03:35;26.10;59.70
19168;DHT22;9716;53.114;18.040;2023-05-29T07:06:05;26.20;59.60
19168;DHT22;9716;53.114;18.040;2023-05-29T07:08:34;26.30;59.80
19168;DHT22;9716;53.114;18.040;2023-05-29T07:11:05;26.30;59.70
19168;DHT22;9716;53.114;18.040;2023-05-29T07:13:34;26.40;59.80
19168;DHT22;9716;53.114;18.040;2023-05-29T07:16:03;26.60;59.70
19168;DHT22;9716;53.114;18.040;2023-05-29T07:18:49;26.90;59.40
19168;DHT22;9716;53.114;18.040;2023-05-29T07:21:18;27.30;58.90
19168;DHT22;9716;53.114;18.040;2023-05-29T07:23:47;27.60;58.40
19168;DHT22;9716;53.114;18.040;2023-05-29T07:26:17;27.90;58.00
19168;DHT22;9716;53.114;18.040;2023-05-29T07:28:46;28.10;57.60
19168;DHT22;9716;53.114;18.040;2023-05-29T07:31:14;28.20;57.20
19168;DHT22;9716;53.114;18.040;2023-05-29T07:33:43;28.20;57.10
19168;DHT22;9716;53.114;18.040;2023-05-29T07:36:12;28.20;57.00
19168;DHT22;9716;53.114;18.040;2023-05-29T07:38:40;28.30;57.00
19168;DHT22;9716;53.114;18.040;2023-05-29T07:41:09;28.40;56.80
19168;DHT22;9716;53.114;18.040;2023-05-29T07:43:39;28.50;56.70
19168;DHT22;9716;53.114;18.040;2023-05-29T07:46:08;28.60;56.50
19168;DHT22;9716;53.114;18.040;2023-05-29T07:48:37;28.70;56.40
19168;DHT22;9716;53.114;18.040;2023-05-29T07:51:05;28.90;56.20
19168;DHT22;9716;53.114;18.040;2023-05-29T07:53:37;29.10;55.90
19168;DHT22;9716;53.114;18.040;2023-05-29T07:56:06;29.20;55.60
19168;DHT22;9716;53.114;18.040;2023-05-29T07:58:34;29.40;55.50
19168;DHT22;9716;53.114;18.040;2023-05-29T08:01:04;29.50;55.30
19168;DHT22;9716;53.114;18.040;2023-05-29T08:03:33;29.50;55.20
19168;DHT22;9716;53.114;18.040;2023-05-29T08:06:02;29.30;55.40
19168;DHT22;9716;53.114;18.040;2023-05-29T08:08:31;29.00;55.60
19168;DHT22;9716;53.114;18.040;2023-05-29T08:10:59;28.90;56.00
19168;DHT22;9716;53.114;18.040;2023-05-29T08:13:29;28.90;56.20
19168;DHT22;9716;53.114;18.040;2023-05-29T08:15:58;28.90;56.20
19168;DHT22;9716;53.114;18.040;2023-05-29T08:18:31;28.90;56.10
19168;DHT22;9716;53.114;18.040;2023-05-29T08:21:00;28.90;55.80
19168;DHT22;9716;53.114;18.040;2023-05-29T08:23:29;28.90;55.90
19168;DHT22;9716;53.114;18.040;2023-05-29T08:26:01;28.70;55.80
19168;DHT22;9716;53.114;18.040;2023-05-29T08:28:31;28.50;56.00
19168;DHT22;9716;53.114;18.040;2023-05-29T08:30:59;28.30;56.30
19168;DHT22;9716;53.114;18.040;2023-05-29T08:33:29;28.30;56.40
19168;DHT22;9716;53.114;18.040;2023-05-29T08:35:59;28.40;56.20
19168;DHT22;9716;53.114;18.040;2023-05-29T08:38:28;28.50;56.20
19168;DHT22;9716;53.114;18.040;2023-05-29T08:41:00;28.70;56.00
19168;DHT22;9716;53.114;18.040;2023-05-29T08:43:30;29.00;55.80
19168;DHT22;9716;53.114;18.040;2023-05-29T08:46:00;29.20;55.20
19168;DHT22;9716;53.114;18.040;2023-05-29T08:48:31;29.00;55.00
19168;DHT22;9716;53.114;18.040;2023-05-29T08:51:02;28.40;55.50
19168;DHT22;9716;53.114;18.040;2023-05-29T08:53:31;27.70;56.20
19168;DHT22;9716;53.114;18.040;2023-05-29T08:56:00;27.20;56.90
19168;DHT22;9716;53.114;18.040;2023-05-29T08:58:30;27.10;57.10
19168;DHT22;9716;53.114;18.040;2023-05-29T09:00:59;27.00;57.00
19168;DHT22;9716;53.114;18.040;2023-05-29T09:03:29;27.10;57.30
19168;DHT22;9716;53.114;18.040;2023-05-29T09:05:58;27.10;57.50
19168;DHT22;9716;53.114;18.040;2023-05-29T09:08:27;27.10;57.40
19168;DHT22;9716;53.114;18.040;2023-05-29T09:10:56;26.90;57.50
19168;DHT22;9716;53.114;18.040;2023-05-29T09:13:25;26.70;57.90
19168;DHT22;9716;53.114;18.040;2023-05-29T09:15:58;26.40;58.30
19168;DHT22;9716;53.114;18.040;2023-05-29T09:18:30;26.20;58.60
19168;DHT22;9716;53.114;18.040;2023-05-29T09:20:59;26.20;58.60
19168;DHT22;9716;53.114;18.040;2023-05-29T09:23:29;26.00;58.90
19168;DHT22;9716;53.114;18.040;2023-05-29T09:25:58;25.90;59.20
19168;DHT22;9716;53.114;18.040;2023-05-29T09:28:30;25.90;59.50
19168;DHT22;9716;53.114;18.040;2023-05-29T09:31:00;25.90;60.20
19168;DHT22;9716;53.114;18.040;2023-05-29T09:33:30;26.10;59.70
19168;DHT22;9716;53.114;18.040;2023-05-29T09:35:59;26.20;59.50
19168;DHT22;9716;53.114;18.040;2023-05-29T09:38:30;26.50;58.90
19168;DHT22;9716;53.114;18.040;2023-05-29T09:41:21;26.60;58.10
19168;DHT22;9716;53.114;18.040;2023-05-29T09:43:50;26.40;58.30
19168;DHT22;9716;53.114;18.040;2023-05-29T09:46:24;26.20;58.60
19168;DHT22;9716;53.114;18.040;2023-05-29T09:48:54;25.90;59.10
19168;DHT22;9716;53.114;18.040;2023-05-29T09:51:24;25.80;59.50
19168;DHT22;9716;53.114;18.040;2023-05-29T09:53:53;25.90;59.00
19168;DHT22;9716;53.114;18.040;2023-05-29T09:56:24;26.00;58.40
19168;DHT22;9716;53.114;18.040;2023-05-29T09:58:53;25.80;58.40
19168;DHT22;9716;53.114;18.040;2023-05-29T10:01:25;25.80;58.80
19168;DHT22;9716;53.114;18.040;2023-05-29T10:03:56;25.90;59.20
19168;DHT22;9716;53.114;18.040;2023-05-29T10:06:25;26.10;59.10
19168;DHT22;9716;53.114;18.040;2023-05-29T10:08:53;26.50;58.20
19168;DHT22;9716;53.114;18.040;2023-05-29T10:11:24;26.80;57.90
19168;DHT22;9716;53.114;18.040;2023-05-29T10:13:57;27.10;56.90
19168;DHT22;9716;53.114;18.040;2023-05-29T10:16:27;27.10;56.60
19168;DHT22;9716;53.114;18.040;2023-05-29T10:18:57;27.10;56.60
19168;DHT22;9716;53.114;18.040;2023-05-29T10:21:31;27.20;56.70
19168;DHT22;9716;53.114;18.040;2023-05-29T10:24:01;27.40;56.50
19168;DHT22;9716;53.114;18.040;2023-05-29T10:26:34;27.60;56.60
19168;DHT22;9716;53.114;18.040;2023-05-29T10:29:07;27.70;56.20
19168;DHT22;9716;53.114;18.040;2023-05-29T10:31:52;27.80;55.90
19168;DHT22;9716;53.114;18.040;2023-05-29T10:34:34;28.00;55.50
19168;DHT22;9716;53.114;18.040;2023-05-29T10:37:09;28.00;55.40
19168;DHT22;9716;53.114;18.040;2023-05-29T10:39:42;28.00;54.90
19168;DHT22;9716;53.114;18.040;2023-05-29T10:42:42;28.00;55.10
19168;DHT22;9716;53.114;18.040;2023-05-29T10:45:47;28.20;55.10
19168;DHT22;9716;53.114;18.040;2023-05-29T10:48:39;28.40;55.20
19168;DHT22;9716;53.114;18.040;2023-05-29T10:51:24;28.40;54.50
19168;DHT22;9716;53.114;18.040;2023-05-29T10:53:53;28.40;54.40
19168;DHT22;9716;53.114;18.040;2023-05-29T10:56:23;28.40;54.60
19168;DHT22;9716;53.114;18.040;2023-05-29T10:58:55;28.40;54.40
19168;DHT22;9716;53.114;18.040;2023-05-29T11:01:24;28.30;54.80
19168;DHT22;9716;53.114;18.040;2023-05-29T11:04:26;28.30;54.70
19168;DHT22;9716;53.114;18.040;2023-05-29T11:06:57;28.20;54.60
19168;DHT22;9716;53.114;18.040;2023-05-29T11:09:30;28.00;54.40
19168;DHT22;9716;53.114;18.040;2023-05-29T11:12:13;27.90;54.60
19168;DHT22;9716;53.114;18.040;2023-05-29T11:14:46;27.70;54.50
19168;DHT22;9716;53.114;18.040;2023-05-29T11:17:30;27.60;54.90
19168;DHT22;9716;53.114;18.040;2023-05-29T11:20:02;27.60;55.10
19168;DHT22;9716;53.114;18.040;2023-05-29T11:23:02;27.60;54.70
19168;DHT22;9716;53.114;18.040;2023-05-29T11:25:36;27.70;54.40
19168;DHT22;9716;53.114;18.040;2023-05-29T11:28:06;27.50;54.20
19168;DHT22;9716;53.114;18.040;2023-05-29T11:30:45;27.30;54.40
19168;DHT22;9716;53.114;18.040;2023-05-29T11:33:23;27.00;54.70
19168;DHT22;9716;53.114;18.040;2023-05-29T11:35:57;26.80;55.10
19168;DHT22;9716;53.114;18.040;2023-05-29T11:38:27;26.60;55.00
19168;DHT22;9716;53.114;18.040;2023-05-29T11:40:56;26.60;55.00
19168;DHT22;9716;53.114;18.040;2023-05-29T11:43:26;26.40;55.20
19168;DHT22;9716;53.114;18.040;2023-05-29T11:45:56;26.20;55.40
19168;DHT22;9716;53.114;18.040;2023-05-29T11:48:25;26.10;55.30
19168;DHT22;9716;53.114;18.040;2023-05-29T11:50:54;26.10;55.20
19168;DHT22;9716;53.114;18.040;2023-05-29T11:53:23;26.10;55.50
19168;DHT22;9716;53.114;18.040;2023-05-29T11:56:07;26.00;55.10
19168;DHT22;9716;53.114;18.040;2023-05-29T11:58:37;25.90;55.20
19168;DHT22;9716;53.114;18.040;2023-05-29T12:01:06;25.90;55.70
19168;DHT22;9716;53.114;18.040;2023-05-29T12:03:39;25.90;55.70
19168;DHT22;9716;53.114;18.040;2023-05-29T12:06:09;25.90;55.10
19168;DHT22;9716;53.114;18.040;2023-05-29T12:08:37;25.90;55.00
19168;DHT22;9716;53.114;18.040;2023-05-29T12:11:08;25.80;54.80
19168;DHT22;9716;53.114;18.040;2023-05-29T12:13:37;25.70;54.80
19168;DHT22;9716;53.114;18.040;2023-05-29T12:16:06;25.50;54.90
19168;DHT22;9716;53.114;18.040;2023-05-29T12:18:35;25.50;55.30
19168;DHT22;9716;53.114;18.040;2023-05-29T12:21:04;25.50;55.40
19168;DHT22;9716;53.114;18.040;2023-05-29T12:23:32;25.60;55.60
19168;DHT22;9716;53.114;18.040;2023-05-29T12:26:03;25.70;55.40
19168;DHT22;9716;53.114;18.040;2023-05-29T12:28:34;25.70;55.10
19168;DHT22;9716;53.114;18.040;2023-05-29T12:31:03;25.60;54.90
19168;DHT22;9716;53.114;18.040;2023-05-29T12:33:32;25.50;55.00
19168;DHT22;9716;53.114;18.040;2023-05-29T12:36:03;25.40;55.30
19168;DHT22;9716;53.114;18.040;2023-05-29T12:38:32;25.40;55.20
19168;DHT22;9716;53.114;18.040;2023-05-29T12:41:01;25.30;55.10
19168;DHT22;9716;53.114;18.040;2023-05-29T12:43:29;25.20;55.30
19168;DHT22;9716;53.114;18.040;2023-05-29T12:45:59;25.20;55.60
19168;DHT22;9716;53.114;18.040;2023-05-29T12:48:28;25.30;55.70
19168;DHT22;9716;53.114;18.040;2023-05-29T12:51:04;25.30;55.60
19168;DHT22;9716;53.114;18.040;2023-05-29T12:53:35;25.30;55.50
19168;DHT22;9716;53.114;18.040;2023-05-29T12:56:04;25.20;55.60
19168;DHT22;9716;53.114;18.040;2023-05-29T12:58:32;25.20;55.60
19168;DHT22;9716;53.114;18.040;2023-05-29T13:01:02;25.20;55.30
19168;DHT22;9716;53.114;18.040;2023-05-29T13:03:31;25.10;55.10
19168;DHT22;9716;53.114;18.040;2023-05-29T13:06:01;25.00;55.20
19168;DHT22;9716;53.114;18.040;2023-05-29T13:08:29;24.70;55.50
19168;DHT22;9716;53.114;18.040;2023-05-29T13:10:58;24.60;55.60
19168;DHT22;9716;53.114;18.040;2023-05-29T13:13:26;24.50;55.80
19168;DHT22;9716;53.114;18.040;2023-05-29T13:15:55;24.30;55.90
19168;DHT22;9716;53.114;18.040;2023-05-29T13:18:25;24.20;56.00
19168;DHT22;9716;53.114;18.040;2023-05-29T13:20:54;24.10;56.10
19168;DHT22;9716;53.114;18.040;2023-05-29T13:23:23;24.00;56.20
19168;DHT22;9716;53.114;18.040;2023-05-29T13:25:54;23.90;56.30
19168;DHT22;9716;53.114;18.040;2023-05-29T13:28:23;23.90;57.10
19168;DHT22;9716;53.114;18.040;2023-05-29T13:30:52;23.80;56.30
19168;DHT22;9716;53.114;18.040;2023-05-29T13:33:21;23.70;56.30
19168;DHT22;9716;53.114;18.040;2023-05-29T13:35:51;23.60;56.50
19168;DHT22;9716;53.114;18.040;2023-05-29T13:38:24;23.50;56.60
19168;DHT22;9716;53.114;18.040;2023-05-29T13:40:52;23.40;56.60
19168;DHT22;9716;53.114;18.040;2023-05-29T13:43:21;23.40;56.80
19168;DHT22;9716;53.114;18.040;2023-05-29T13:46:02;23.30;56.70
19168;DHT22;9716;53.114;18.040;2023-05-29T13:48:30;23.40;57.00
19168;DHT22;9716;53.114;18.040;2023-05-29T13:51:02;23.50;56.70
19168;DHT22;9716;53.114;18.040;2023-05-29T13:53:31;23.70;56.60
19168;DHT22;9716;53.114;18.040;2023-05-29T13:55:59;23.90;56.50
19168;DHT22;9716;53.114;18.040;2023-05-29T13:58:30;24.00;56.40
19168;DHT22;9716;53.114;18.040;2023-05-29T14:01:00;24.10;56.30
19168;DHT22;9716;53.114;18.040;2023-05-29T14:03:29;24.20;56.30
19168;DHT22;9716;53.114;18.040;2023-05-29T14:05:59;24.40;56.40
19168;DHT22;9716;53.114;18.040;2023-05-29T14:08:31;24.60;56.40
19168;DHT22;9716;53.114;18.040;2023-05-29T14:10:59;24.70;56.20
19168;DHT22;9716;53.114;18.040;2023-05-29T14:13:28;24.90;56.20
19168;DHT22;9716;53.114;18.040;2023-05-29T14:15:57;25.00;55.90
19168;DHT22;9716;53.114;18.040;2023-05-29T14:18:26;25.00;55.80
19168;DHT22;9716;53.114;18.040;2023-05-29T14:20:55;25.10;55.80
19168;DHT22;9716;53.114;18.040;2023-05-29T14:23:23;25.10;55.80
19168;DHT22;9716;53.114;18.040;2023-05-29T14:25:53;25.20;55.80
19168;DHT22;9716;53.114;18.040;2023-05-29T14:28:22;25.30;55.70
19168;DHT22;9716;53.114;18.040;2023-05-29T14:30:51;25.30;55.60
19168;DHT22;9716;53.114;18.040;2023-05-29T14:33:22;25.40;55.60
19168;DHT22;9716;53.114;18.040;2023-05-29T14:35:52;25.30;55.50
19168;DHT22;9716;53.114;18.040;2023-05-29T14:38:21;25.30;55.50
19168;DHT22;9716;53.114;18.040;2023-05-29T14:40:50;25.30;55.60
19168;DHT22;9716;53.114;18.040;2023-05-29T14:46:05;25.30;55.60
19168;DHT22;9716;53.114;18.040;2023-05-29T14:48:33;25.30;55.60
19168;DHT22;9716;53.114;18.040;2023-05-29T14:51:02;25.20;55.70
19168;DHT22;9716;53.114;18.040;2023-05-29T14:53:30;25.20;55.90
19168;DHT22;9716;53.114;18.040;2023-05-29T14:56:00;25.20;55.90
19168;DHT22;9716;53.114;18.040;2023-05-29T14:58:28;25.20;56.00
19168;DHT22;9716;53.114;18.040;2023-05-29T15:00:58;25.10;56.00
19168;DHT22;9716;53.114;18.040;2023-05-29T15:03:27;25.00;55.80
19168;DHT22;9716;53.114;18.040;2023-05-29T15:05:56;24.90;55.90
19168;DHT22;9716;53.114;18.040;2023-05-29T15:08:24;24.80;56.00
19168;DHT22;9716;53.114;18.040;2023-05-29T15:10:55;24.70;56.20
19168;DHT22;9716;53.114;18.040;2023-05-29T15:13:23;24.50;56.20
19168;DHT22;9716;53.114;18.040;2023-05-29T15:15:53;24.40;56.30
19168;DHT22;9716;53.114;18.040;2023-05-29T15:18:23;24.40;57.00
19168;DHT22;9716;53.114;18.040;2023-05-29T15:20:52;24.40;56.40
19168;DHT22;9716;53.114;18.040;2023-05-29T15:23:21;24.30;56.30
19168;DHT22;9716;53.114;18.040;2023-05-29T15:25:50;24.30;56.40
19168;DHT22;9716;53.114;18.040;2023-05-29T15:28:19;24.20;56.50
19168;DHT22;9716;53.114;18.040;2023-05-29T15:30:48;24.20;56.70
19168;DHT22;9716;53.114;18.040;2023-05-29T15:33:16;24.10;56.70
19168;DHT22;9716;53.114;18.040;2023-05-29T15:35:46;24.10;56.80
19168;DHT22;9716;53.114;18.040;2023-05-29T15:38:16;24.10;56.90
19168;DHT22;9716;53.114;18.040;2023-05-29T15:40:45;24.00;56.90
19168;DHT22;9716;53.114;18.040;2023-05-29T15:43:14;23.90;57.00
19168;DHT22;9716;53.114;18.040;2023-05-29T15:45:42;23.90;57.10
19168;DHT22;9716;53.114;18.040;2023-05-29T15:48:11;23.70;57.00
19168;DHT22;9716;53.114;18.040;2023-05-29T15:50:40;23.60;57.10
19168;DHT22;9716;53.114;18.040;2023-05-29T15:53:09;23.50;57.30